Huvudsida
METAR-TAF:

METAR-TAF

Flygplatser :

Sand Point, Alaska, USA

latitud: 55-19N, longitud: 160-31W, höjd: 7 m

Aktuellt väderrapport

Denna rapport gjordes för 1 timme och 3 minuter sedan, klockan 17:56 UTC
Vind 4 kt från nord/nordost
Temperatur 7°C
Fuktighet 81%
Tryck 1026 hPa
Sikt: 16.1 km
Få moln på en höjd av 3500 ft
Få moln på en höjd av 9000 ft

METAR: PASD 141756Z 03004KT 10SM FEW035 FEW090 07/04 A3030 RMK AO2 SLP262 6//// T00720044 10072 20028 56002 PNO $

Tid: 10:59 (18:59 UTC)

Väderprognos

Denna rapport gjordes för 1 timme och 39 minuter sedan, klockan 17:20 UTC
Prognos gäller från 14 kl. 18 UTC till 15 kl. 18 UTC
Vind 5 kt från nord/nordost
Sikt: 10 km
Klar himmel

TAF: PASD 141720Z 1418/1518 03005KT P6SM SKC

Aktuella väderrapporter och prognoser från 4000 flygplatser (METAR- och TAF-rapporter).

De tillgängliga stationerna syns som gula och röda prickar på kartan.

För musen över prickarna för att se namnen på stationerna.

Klicka sedan för att få väderrapporter och prognoser.

För att ändra kartan: Klicka på de gröna knapparna med ett svart kors på för att zooma in; den gröna knappen med ett streck på för att zooma ut; eller på de gröna pilarna för angränsande kartor.


METAR-TAF: